sensor_id;sensor_type;location;lat;lon;timestamp;P1;durP1;ratioP1;P2;durP2;ratioP2
11006;SDS011;8186;57.652;11.968;2023-02-01T00:00:00;10.83;;;2.60;;
11006;SDS011;8186;57.652;11.968;2023-02-01T00:02:27;14.47;;;2.90;;
11006;SDS011;8186;57.652;11.968;2023-02-01T00:04:54;11.33;;;2.53;;
11006;SDS011;8186;57.652;11.968;2023-02-01T00:07:20;15.70;;;2.70;;
11006;SDS011;8186;57.652;11.968;2023-02-01T00:09:47;18.00;;;3.63;;
11006;SDS011;8186;57.652;11.968;2023-02-01T00:12:14;15.47;;;2.67;;
11006;SDS011;8186;57.652;11.968;2023-02-01T00:14:41;12.97;;;2.47;;
11006;SDS011;8186;57.652;11.968;2023-02-01T00:17:09;14.93;;;2.97;;
11006;SDS011;8186;57.652;11.968;2023-02-01T00:19:36;14.97;;;2.73;;
11006;SDS011;8186;57.652;11.968;2023-02-01T00:22:03;12.80;;;2.90;;
11006;SDS011;8186;57.652;11.968;2023-02-01T00:24:30;13.03;;;2.37;;
11006;SDS011;8186;57.652;11.968;2023-02-01T00:26:57;15.27;;;2.43;;
11006;SDS011;8186;57.652;11.968;2023-02-01T00:29:25;12.80;;;2.37;;
11006;SDS011;8186;57.652;11.968;2023-02-01T00:31:52;12.90;;;3.17;;
11006;SDS011;8186;57.652;11.968;2023-02-01T00:34:21;13.07;;;2.90;;
11006;SDS011;8186;57.652;11.968;2023-02-01T00:36:48;19.03;;;3.40;;
11006;SDS011;8186;57.652;11.968;2023-02-01T00:39:15;10.87;;;2.83;;
11006;SDS011;8186;57.652;11.968;2023-02-01T00:41:42;9.93;;;2.50;;
11006;SDS011;8186;57.652;11.968;2023-02-01T00:44:09;12.07;;;2.67;;
11006;SDS011;8186;57.652;11.968;2023-02-01T00:46:36;19.17;;;3.03;;
11006;SDS011;8186;57.652;11.968;2023-02-01T00:49:03;8.93;;;2.33;;
11006;SDS011;8186;57.652;11.968;2023-02-01T00:51:32;11.00;;;2.30;;
11006;SDS011;8186;57.652;11.968;2023-02-01T00:53:59;16.10;;;3.40;;
11006;SDS011;8186;57.652;11.968;2023-02-01T00:56:25;15.30;;;3.60;;
11006;SDS011;8186;57.652;11.968;2023-02-01T00:58:53;18.00;;;3.63;;
11006;SDS011;8186;57.652;11.968;2023-02-01T01:01:21;12.67;;;3.00;;
11006;SDS011;8186;57.652;11.968;2023-02-01T01:03:49;21.57;;;3.17;;
11006;SDS011;8186;57.652;11.968;2023-02-01T01:06:18;20.07;;;2.93;;
11006;SDS011;8186;57.652;11.968;2023-02-01T01:08:49;12.83;;;3.10;;
11006;SDS011;8186;57.652;11.968;2023-02-01T01:11:18;13.77;;;3.30;;
11006;SDS011;8186;57.652;11.968;2023-02-01T01:13:46;14.80;;;3.10;;
11006;SDS011;8186;57.652;11.968;2023-02-01T01:16:13;13.47;;;3.37;;
11006;SDS011;8186;57.652;11.968;2023-02-01T01:18:40;16.53;;;3.37;;
11006;SDS011;8186;57.652;11.968;2023-02-01T01:21:08;19.77;;;3.50;;
11006;SDS011;8186;57.652;11.968;2023-02-01T01:23:36;15.43;;;3.37;;
11006;SDS011;8186;57.652;11.968;2023-02-01T01:26:06;10.50;;;2.77;;
11006;SDS011;8186;57.652;11.968;2023-02-01T01:28:33;15.60;;;2.83;;
11006;SDS011;8186;57.652;11.968;2023-02-01T01:31:00;17.07;;;3.73;;
11006;SDS011;8186;57.652;11.968;2023-02-01T01:33:27;14.07;;;3.13;;
11006;SDS011;8186;57.652;11.968;2023-02-01T01:35:54;18.40;;;3.47;;
11006;SDS011;8186;57.652;11.968;2023-02-01T01:38:21;13.63;;;3.93;;
11006;SDS011;8186;57.652;11.968;2023-02-01T01:40:48;16.97;;;3.77;;
11006;SDS011;8186;57.652;11.968;2023-02-01T01:43:18;15.87;;;3.37;;
11006;SDS011;8186;57.652;11.968;2023-02-01T01:45:47;23.17;;;4.00;;
11006;SDS011;8186;57.652;11.968;2023-02-01T01:48:16;16.87;;;4.40;;
11006;SDS011;8186;57.652;11.968;2023-02-01T01:50:45;18.93;;;3.70;;
11006;SDS011;8186;57.652;11.968;2023-02-01T01:53:16;12.07;;;3.03;;
11006;SDS011;8186;57.652;11.968;2023-02-01T01:55:46;13.87;;;2.83;;
11006;SDS011;8186;57.652;11.968;2023-02-01T01:58:16;16.33;;;3.07;;
11006;SDS011;8186;57.652;11.968;2023-02-01T02:00:45;18.97;;;3.10;;
11006;SDS011;8186;57.652;11.968;2023-02-01T02:03:14;15.03;;;2.60;;
11006;SDS011;8186;57.652;11.968;2023-02-01T02:05:43;18.07;;;3.43;;
11006;SDS011;8186;57.652;11.968;2023-02-01T02:08:11;16.23;;;3.87;;
11006;SDS011;8186;57.652;11.968;2023-02-01T02:10:38;22.13;;;3.47;;
11006;SDS011;8186;57.652;11.968;2023-02-01T02:13:24;15.87;;;3.23;;
11006;SDS011;8186;57.652;11.968;2023-02-01T02:15:55;14.90;;;3.00;;
11006;SDS011;8186;57.652;11.968;2023-02-01T02:18:31;21.03;;;3.80;;
11006;SDS011;8186;57.652;11.968;2023-02-01T02:21:09;20.47;;;3.83;;
11006;SDS011;8186;57.652;11.968;2023-02-01T02:23:59;17.70;;;3.83;;
11006;SDS011;8186;57.652;11.968;2023-02-01T02:26:46;23.10;;;4.57;;
11006;SDS011;8186;57.652;11.968;2023-02-01T02:29:27;20.93;;;3.60;;
11006;SDS011;8186;57.652;11.968;2023-02-01T02:32:31;21.00;;;3.43;;
11006;SDS011;8186;57.652;11.968;2023-02-01T02:35:13;19.27;;;3.87;;
11006;SDS011;8186;57.652;11.968;2023-02-01T02:37:45;25.27;;;4.73;;
11006;SDS011;8186;57.652;11.968;2023-02-01T02:40:17;21.47;;;4.27;;
11006;SDS011;8186;57.652;11.968;2023-02-01T02:42:49;20.10;;;4.10;;
11006;SDS011;8186;57.652;11.968;2023-02-01T02:45:41;21.67;;;4.67;;
11006;SDS011;8186;57.652;11.968;2023-02-01T02:48:29;18.90;;;4.23;;
11006;SDS011;8186;57.652;11.968;2023-02-01T02:51:00;20.03;;;5.03;;
11006;SDS011;8186;57.652;11.968;2023-02-01T02:53:48;17.33;;;4.40;;
11006;SDS011;8186;57.652;11.968;2023-02-01T02:56:36;14.60;;;3.67;;
11006;SDS011;8186;57.652;11.968;2023-02-01T02:59:22;19.67;;;3.53;;
11006;SDS011;8186;57.652;11.968;2023-02-01T03:02:09;24.80;;;5.33;;
11006;SDS011;8186;57.652;11.968;2023-02-01T03:04:53;15.47;;;2.90;;
11006;SDS011;8186;57.652;11.968;2023-02-01T03:10:20;17.37;;;3.53;;
11006;SDS011;8186;57.652;11.968;2023-02-01T03:12:51;24.60;;;3.90;;
11006;SDS011;8186;57.652;11.968;2023-02-01T03:15:21;31.30;;;4.87;;
11006;SDS011;8186;57.652;11.968;2023-02-01T03:17:51;19.13;;;4.17;;
11006;SDS011;8186;57.652;11.968;2023-02-01T03:20:19;21.47;;;4.77;;
11006;SDS011;8186;57.652;11.968;2023-02-01T03:22:47;26.80;;;4.90;;
11006;SDS011;8186;57.652;11.968;2023-02-01T03:25:17;19.87;;;4.83;;
11006;SDS011;8186;57.652;11.968;2023-02-01T03:27:49;22.60;;;5.40;;
11006;SDS011;8186;57.652;11.968;2023-02-01T03:30:20;16.20;;;4.43;;
11006;SDS011;8186;57.652;11.968;2023-02-01T03:32:50;31.50;;;5.40;;
11006;SDS011;8186;57.652;11.968;2023-02-01T03:35:26;33.40;;;5.70;;
11006;SDS011;8186;57.652;11.968;2023-02-01T03:37:59;28.30;;;5.53;;
11006;SDS011;8186;57.652;11.968;2023-02-01T03:40:28;23.37;;;6.07;;
11006;SDS011;8186;57.652;11.968;2023-02-01T03:42:58;32.60;;;5.77;;
11006;SDS011;8186;57.652;11.968;2023-02-01T03:45:27;30.50;;;6.77;;
11006;SDS011;8186;57.652;11.968;2023-02-01T03:47:55;31.20;;;7.23;;
11006;SDS011;8186;57.652;11.968;2023-02-01T03:50:25;28.77;;;5.70;;
11006;SDS011;8186;57.652;11.968;2023-02-01T03:52:53;23.13;;;5.43;;
11006;SDS011;8186;57.652;11.968;2023-02-01T03:55:24;30.00;;;6.10;;
11006;SDS011;8186;57.652;11.968;2023-02-01T03:57:53;27.33;;;5.67;;
11006;SDS011;8186;57.652;11.968;2023-02-01T04:00:24;26.40;;;5.07;;
11006;SDS011;8186;57.652;11.968;2023-02-01T04:02:52;20.73;;;4.47;;
11006;SDS011;8186;57.652;11.968;2023-02-01T04:05:19;19.80;;;4.83;;
11006;SDS011;8186;57.652;11.968;2023-02-01T04:07:47;22.97;;;4.83;;
11006;SDS011;8186;57.652;11.968;2023-02-01T04:10:15;25.37;;;4.97;;
11006;SDS011;8186;57.652;11.968;2023-02-01T04:12:42;26.67;;;5.27;;
11006;SDS011;8186;57.652;11.968;2023-02-01T04:15:09;29.57;;;5.97;;
11006;SDS011;8186;57.652;11.968;2023-02-01T04:17:36;21.73;;;5.03;;
11006;SDS011;8186;57.652;11.968;2023-02-01T04:20:04;26.00;;;5.60;;
11006;SDS011;8186;57.652;11.968;2023-02-01T04:22:31;26.87;;;4.57;;
11006;SDS011;8186;57.652;11.968;2023-02-01T04:24:58;20.67;;;5.43;;
11006;SDS011;8186;57.652;11.968;2023-02-01T04:27:26;20.53;;;5.00;;
11006;SDS011;8186;57.652;11.968;2023-02-01T04:29:53;23.10;;;5.67;;
11006;SDS011;8186;57.652;11.968;2023-02-01T04:32:20;25.63;;;5.97;;
11006;SDS011;8186;57.652;11.968;2023-02-01T04:34:47;23.47;;;5.63;;
11006;SDS011;8186;57.652;11.968;2023-02-01T04:37:14;19.70;;;4.57;;
11006;SDS011;8186;57.652;11.968;2023-02-01T04:39:41;27.53;;;5.17;;
11006;SDS011;8186;57.652;11.968;2023-02-01T04:42:08;31.53;;;6.63;;
11006;SDS011;8186;57.652;11.968;2023-02-01T04:44:36;33.77;;;6.37;;
11006;SDS011;8186;57.652;11.968;2023-02-01T04:47:04;34.60;;;5.77;;
11006;SDS011;8186;57.652;11.968;2023-02-01T04:49:31;32.73;;;6.17;;
11006;SDS011;8186;57.652;11.968;2023-02-01T04:51:58;25.33;;;5.97;;
11006;SDS011;8186;57.652;11.968;2023-02-01T04:54:25;30.37;;;5.57;;
11006;SDS011;8186;57.652;11.968;2023-02-01T04:56:52;29.70;;;5.63;;
11006;SDS011;8186;57.652;11.968;2023-02-01T04:59:19;24.90;;;6.43;;
11006;SDS011;8186;57.652;11.968;2023-02-01T05:01:47;32.00;;;5.80;;
11006;SDS011;8186;57.652;11.968;2023-02-01T05:04:14;23.53;;;5.10;;
11006;SDS011;8186;57.652;11.968;2023-02-01T05:06:43;33.90;;;6.53;;
11006;SDS011;8186;57.652;11.968;2023-02-01T05:09:10;28.40;;;5.60;;
11006;SDS011;8186;57.652;11.968;2023-02-01T05:11:37;21.10;;;5.17;;
11006;SDS011;8186;57.652;11.968;2023-02-01T05:14:21;20.43;;;5.30;;
11006;SDS011;8186;57.652;11.968;2023-02-01T05:16:50;19.63;;;4.73;;
11006;SDS011;8186;57.652;11.968;2023-02-01T05:19:17;20.07;;;4.70;;
11006;SDS011;8186;57.652;11.968;2023-02-01T05:21:44;18.93;;;5.43;;
11006;SDS011;8186;57.652;11.968;2023-02-01T05:24:11;19.47;;;4.67;;
11006;SDS011;8186;57.652;11.968;2023-02-01T05:26:42;26.13;;;4.37;;
11006;SDS011;8186;57.652;11.968;2023-02-01T05:29:09;22.43;;;5.60;;
11006;SDS011;8186;57.652;11.968;2023-02-01T05:31:36;18.33;;;4.57;;
11006;SDS011;8186;57.652;11.968;2023-02-01T05:34:04;21.63;;;5.07;;
11006;SDS011;8186;57.652;11.968;2023-02-01T05:36:31;20.97;;;4.70;;
11006;SDS011;8186;57.652;11.968;2023-02-01T05:38:58;20.90;;;4.63;;
11006;SDS011;8186;57.652;11.968;2023-02-01T05:41:25;27.67;;;6.10;;
11006;SDS011;8186;57.652;11.968;2023-02-01T05:43:52;28.47;;;4.87;;
11006;SDS011;8186;57.652;11.968;2023-02-01T05:46:19;23.00;;;5.07;;
11006;SDS011;8186;57.652;11.968;2023-02-01T05:48:47;27.43;;;4.93;;
11006;SDS011;8186;57.652;11.968;2023-02-01T05:51:15;22.93;;;4.47;;
11006;SDS011;8186;57.652;11.968;2023-02-01T05:53:42;22.90;;;4.90;;
11006;SDS011;8186;57.652;11.968;2023-02-01T05:56:09;25.63;;;4.70;;
11006;SDS011;8186;57.652;11.968;2023-02-01T05:58:36;16.83;;;4.07;;
11006;SDS011;8186;57.652;11.968;2023-02-01T06:01:03;20.17;;;4.87;;
11006;SDS011;8186;57.652;11.968;2023-02-01T06:03:30;19.37;;;5.80;;
11006;SDS011;8186;57.652;11.968;2023-02-01T06:05:57;18.60;;;4.13;;
11006;SDS011;8186;57.652;11.968;2023-02-01T06:08:27;24.67;;;5.07;;
11006;SDS011;8186;57.652;11.968;2023-02-01T06:10:57;22.67;;;4.30;;
11006;SDS011;8186;57.652;11.968;2023-02-01T06:13:24;19.13;;;4.67;;
11006;SDS011;8186;57.652;11.968;2023-02-01T06:15:51;20.07;;;4.50;;
11006;SDS011;8186;57.652;11.968;2023-02-01T06:18:18;24.07;;;4.67;;
11006;SDS011;8186;57.652;11.968;2023-02-01T06:20:51;19.47;;;4.60;;
11006;SDS011;8186;57.652;11.968;2023-02-01T06:23:18;25.77;;;5.50;;
11006;SDS011;8186;57.652;11.968;2023-02-01T06:25:51;26.50;;;5.03;;
11006;SDS011;8186;57.652;11.968;2023-02-01T06:28:18;27.03;;;5.10;;
11006;SDS011;8186;57.652;11.968;2023-02-01T06:30:45;31.50;;;5.87;;
11006;SDS011;8186;57.652;11.968;2023-02-01T06:33:12;30.27;;;5.40;;
11006;SDS011;8186;57.652;11.968;2023-02-01T06:35:40;25.87;;;5.30;;
11006;SDS011;8186;57.652;11.968;2023-02-01T06:38:09;29.77;;;5.03;;
11006;SDS011;8186;57.652;11.968;2023-02-01T06:40:36;27.07;;;4.83;;
11006;SDS011;8186;57.652;11.968;2023-02-01T06:43:05;27.60;;;4.90;;
11006;SDS011;8186;57.652;11.968;2023-02-01T06:45:32;21.00;;;3.90;;
11006;SDS011;8186;57.652;11.968;2023-02-01T06:47:59;18.30;;;4.53;;
11006;SDS011;8186;57.652;11.968;2023-02-01T06:50:27;23.30;;;4.50;;
11006;SDS011;8186;57.652;11.968;2023-02-01T06:52:54;20.17;;;4.17;;
11006;SDS011;8186;57.652;11.968;2023-02-01T06:55:21;21.87;;;4.70;;
11006;SDS011;8186;57.652;11.968;2023-02-01T06:57:52;22.70;;;4.23;;
11006;SDS011;8186;57.652;11.968;2023-02-01T07:00:21;24.17;;;5.37;;
11006;SDS011;8186;57.652;11.968;2023-02-01T07:02:49;26.03;;;4.30;;
11006;SDS011;8186;57.652;11.968;2023-02-01T07:05:16;22.00;;;4.83;;
11006;SDS011;8186;57.652;11.968;2023-02-01T07:07:43;22.27;;;4.77;;
11006;SDS011;8186;57.652;11.968;2023-02-01T07:10:10;17.93;;;4.60;;
11006;SDS011;8186;57.652;11.968;2023-02-01T07:12:37;20.60;;;5.20;;
11006;SDS011;8186;57.652;11.968;2023-02-01T07:15:05;20.97;;;4.80;;
11006;SDS011;8186;57.652;11.968;2023-02-01T07:17:34;22.97;;;4.87;;
11006;SDS011;8186;57.652;11.968;2023-02-01T07:20:01;18.17;;;3.60;;
11006;SDS011;8186;57.652;11.968;2023-02-01T07:22:28;15.47;;;3.60;;
11006;SDS011;8186;57.652;11.968;2023-02-01T07:24:55;18.10;;;4.30;;
11006;SDS011;8186;57.652;11.968;2023-02-01T07:27:22;15.23;;;3.13;;
11006;SDS011;8186;57.652;11.968;2023-02-01T07:29:50;21.90;;;3.47;;
11006;SDS011;8186;57.652;11.968;2023-02-01T07:32:17;16.30;;;3.70;;
11006;SDS011;8186;57.652;11.968;2023-02-01T07:34:46;16.77;;;3.47;;
11006;SDS011;8186;57.652;11.968;2023-02-01T07:37:12;18.63;;;4.30;;
11006;SDS011;8186;57.652;11.968;2023-02-01T07:39:39;17.83;;;4.03;;
11006;SDS011;8186;57.652;11.968;2023-02-01T07:42:06;18.60;;;3.57;;
11006;SDS011;8186;57.652;11.968;2023-02-01T07:44:33;17.87;;;3.27;;
11006;SDS011;8186;57.652;11.968;2023-02-01T07:47:00;13.83;;;3.70;;
11006;SDS011;8186;57.652;11.968;2023-02-01T07:49:27;14.30;;;3.07;;
11006;SDS011;8186;57.652;11.968;2023-02-01T07:51:55;18.63;;;3.00;;
11006;SDS011;8186;57.652;11.968;2023-02-01T07:54:22;21.33;;;3.47;;
11006;SDS011;8186;57.652;11.968;2023-02-01T07:56:49;13.07;;;3.17;;
11006;SDS011;8186;57.652;11.968;2023-02-01T07:59:16;17.90;;;3.77;;
11006;SDS011;8186;57.652;11.968;2023-02-01T08:01:43;13.10;;;3.87;;
11006;SDS011;8186;57.652;11.968;2023-02-01T08:04:09;16.30;;;3.93;;
11006;SDS011;8186;57.652;11.968;2023-02-01T08:06:37;15.60;;;3.33;;
11006;SDS011;8186;57.652;11.968;2023-02-01T08:09:06;18.70;;;3.30;;
11006;SDS011;8186;57.652;11.968;2023-02-01T08:11:35;16.90;;;3.37;;
11006;SDS011;8186;57.652;11.968;2023-02-01T08:14:03;16.47;;;3.73;;
11006;SDS011;8186;57.652;11.968;2023-02-01T08:16:30;16.37;;;4.20;;
11006;SDS011;8186;57.652;11.968;2023-02-01T08:18:58;19.30;;;3.97;;
11006;SDS011;8186;57.652;11.968;2023-02-01T08:21:25;16.60;;;3.73;;
11006;SDS011;8186;57.652;11.968;2023-02-01T08:24:01;16.27;;;3.73;;
11006;SDS011;8186;57.652;11.968;2023-02-01T08:26:31;19.80;;;4.40;;
11006;SDS011;8186;57.652;11.968;2023-02-01T08:28:58;17.53;;;3.97;;
11006;SDS011;8186;57.652;11.968;2023-02-01T08:31:27;18.90;;;4.83;;
11006;SDS011;8186;57.652;11.968;2023-02-01T08:33:55;23.63;;;4.70;;
11006;SDS011;8186;57.652;11.968;2023-02-01T08:36:23;16.97;;;3.97;;
11006;SDS011;8186;57.652;11.968;2023-02-01T08:38:51;18.70;;;3.80;;
11006;SDS011;8186;57.652;11.968;2023-02-01T08:41:19;18.93;;;4.43;;
11006;SDS011;8186;57.652;11.968;2023-02-01T08:43:48;21.53;;;4.20;;
11006;SDS011;8186;57.652;11.968;2023-02-01T08:46:16;17.63;;;3.70;;
11006;SDS011;8186;57.652;11.968;2023-02-01T08:48:43;17.47;;;4.17;;
11006;SDS011;8186;57.652;11.968;2023-02-01T08:51:12;29.33;;;4.43;;
11006;SDS011;8186;57.652;11.968;2023-02-01T08:53:40;19.57;;;4.10;;
11006;SDS011;8186;57.652;11.968;2023-02-01T08:56:07;23.70;;;4.50;;
11006;SDS011;8186;57.652;11.968;2023-02-01T08:58:35;29.57;;;4.90;;
11006;SDS011;8186;57.652;11.968;2023-02-01T09:01:04;26.57;;;4.70;;
11006;SDS011;8186;57.652;11.968;2023-02-01T09:03:32;31.33;;;4.50;;
11006;SDS011;8186;57.652;11.968;2023-02-01T09:06:00;22.03;;;4.90;;
11006;SDS011;8186;57.652;11.968;2023-02-01T09:08:27;18.17;;;4.00;;
11006;SDS011;8186;57.652;11.968;2023-02-01T09:10:57;31.73;;;4.73;;
11006;SDS011;8186;57.652;11.968;2023-02-01T09:13:25;20.87;;;4.13;;
11006;SDS011;8186;57.652;11.968;2023-02-01T09:15:52;20.67;;;4.70;;
11006;SDS011;8186;57.652;11.968;2023-02-01T09:18:20;21.20;;;4.63;;
11006;SDS011;8186;57.652;11.968;2023-02-01T09:20:47;20.80;;;4.37;;
11006;SDS011;8186;57.652;11.968;2023-02-01T09:23:14;17.63;;;4.17;;
11006;SDS011;8186;57.652;11.968;2023-02-01T09:25:41;25.73;;;4.43;;
11006;SDS011;8186;57.652;11.968;2023-02-01T09:28:07;23.20;;;4.80;;
11006;SDS011;8186;57.652;11.968;2023-02-01T09:30:35;24.80;;;5.67;;
11006;SDS011;8186;57.652;11.968;2023-02-01T09:33:02;18.90;;;4.03;;
11006;SDS011;8186;57.652;11.968;2023-02-01T09:35:31;21.63;;;5.30;;
11006;SDS011;8186;57.652;11.968;2023-02-01T09:37:58;22.23;;;4.90;;
11006;SDS011;8186;57.652;11.968;2023-02-01T09:40:25;25.30;;;4.87;;
11006;SDS011;8186;57.652;11.968;2023-02-01T09:43:01;27.23;;;5.40;;
11006;SDS011;8186;57.652;11.968;2023-02-01T09:45:38;19.23;;;4.60;;
11006;SDS011;8186;57.652;11.968;2023-02-01T09:48:09;23.37;;;4.77;;
11006;SDS011;8186;57.652;11.968;2023-02-01T09:50:41;21.53;;;5.57;;
11006;SDS011;8186;57.652;11.968;2023-02-01T09:53:11;26.47;;;4.60;;
11006;SDS011;8186;57.652;11.968;2023-02-01T09:55:42;15.97;;;4.40;;
11006;SDS011;8186;57.652;11.968;2023-02-01T09:58:12;26.80;;;5.63;;
11006;SDS011;8186;57.652;11.968;2023-02-01T10:00:43;30.23;;;4.87;;
11006;SDS011;8186;57.652;11.968;2023-02-01T10:03:13;25.87;;;4.63;;
11006;SDS011;8186;57.652;11.968;2023-02-01T10:05:47;20.47;;;4.73;;
11006;SDS011;8186;57.652;11.968;2023-02-01T10:08:33;21.07;;;5.27;;
11006;SDS011;8186;57.652;11.968;2023-02-01T10:11:08;24.17;;;5.13;;
11006;SDS011;8186;57.652;11.968;2023-02-01T10:13:48;22.67;;;5.37;;
11006;SDS011;8186;57.652;11.968;2023-02-01T10:16:23;27.07;;;5.50;;
11006;SDS011;8186;57.652;11.968;2023-02-01T10:19:02;26.13;;;5.27;;
11006;SDS011;8186;57.652;11.968;2023-02-01T10:21:47;27.80;;;5.43;;
11006;SDS011;8186;57.652;11.968;2023-02-01T10:24:28;23.53;;;4.57;;
11006;SDS011;8186;57.652;11.968;2023-02-01T10:27:14;25.87;;;4.47;;
11006;SDS011;8186;57.652;11.968;2023-02-01T10:29:45;25.97;;;4.40;;
11006;SDS011;8186;57.652;11.968;2023-02-01T10:32:15;24.40;;;5.07;;
11006;SDS011;8186;57.652;11.968;2023-02-01T10:34:44;23.07;;;4.70;;
11006;SDS011;8186;57.652;11.968;2023-02-01T10:37:20;21.77;;;5.10;;
11006;SDS011;8186;57.652;11.968;2023-02-01T10:39:52;22.33;;;4.50;;
11006;SDS011;8186;57.652;11.968;2023-02-01T10:42:20;25.93;;;5.47;;
11006;SDS011;8186;57.652;11.968;2023-02-01T10:44:49;23.53;;;4.60;;
11006;SDS011;8186;57.652;11.968;2023-02-01T10:47:17;21.07;;;4.57;;
11006;SDS011;8186;57.652;11.968;2023-02-01T10:49:47;22.40;;;4.67;;
11006;SDS011;8186;57.652;11.968;2023-02-01T10:52:20;25.70;;;5.13;;
11006;SDS011;8186;57.652;11.968;2023-02-01T10:54:55;26.20;;;4.40;;
11006;SDS011;8186;57.652;11.968;2023-02-01T10:57:23;22.23;;;4.70;;
11006;SDS011;8186;57.652;11.968;2023-02-01T10:59:51;21.37;;;4.60;;
11006;SDS011;8186;57.652;11.968;2023-02-01T11:02:20;21.73;;;5.93;;
11006;SDS011;8186;57.652;11.968;2023-02-01T11:04:58;21.67;;;3.93;;
11006;SDS011;8186;57.652;11.968;2023-02-01T11:07:27;20.93;;;4.30;;
11006;SDS011;8186;57.652;11.968;2023-02-01T11:09:55;29.10;;;5.63;;
11006;SDS011;8186;57.652;11.968;2023-02-01T11:12:25;28.80;;;6.37;;
11006;SDS011;8186;57.652;11.968;2023-02-01T11:15:00;30.00;;;6.30;;
11006;SDS011;8186;57.652;11.968;2023-02-01T11:17:39;32.70;;;6.40;;
11006;SDS011;8186;57.652;11.968;2023-02-01T11:20:12;23.30;;;5.27;;
11006;SDS011;8186;57.652;11.968;2023-02-01T11:22:46;25.73;;;5.13;;
11006;SDS011;8186;57.652;11.968;2023-02-01T11:25:14;31.83;;;6.90;;
11006;SDS011;8186;57.652;11.968;2023-02-01T11:27:42;34.80;;;6.93;;
11006;SDS011;8186;57.652;11.968;2023-02-01T11:30:13;28.43;;;6.27;;
11006;SDS011;8186;57.652;11.968;2023-02-01T11:32:41;37.00;;;5.80;;
11006;SDS011;8186;57.652;11.968;2023-02-01T11:35:11;37.63;;;6.40;;
11006;SDS011;8186;57.652;11.968;2023-02-01T11:37:42;28.03;;;5.97;;
11006;SDS011;8186;57.652;11.968;2023-02-01T11:40:25;26.27;;;6.27;;
11006;SDS011;8186;57.652;11.968;2023-02-01T11:42:54;29.13;;;5.43;;
11006;SDS011;8186;57.652;11.968;2023-02-01T11:45:24;27.20;;;5.03;;
11006;SDS011;8186;57.652;11.968;2023-02-01T11:47:52;27.27;;;5.50;;
11006;SDS011;8186;57.652;11.968;2023-02-01T11:50:22;24.43;;;5.20;;
11006;SDS011;8186;57.652;11.968;2023-02-01T11:53:03;26.90;;;5.20;;
11006;SDS011;8186;57.652;11.968;2023-02-01T11:55:46;30.70;;;5.27;;
11006;SDS011;8186;57.652;11.968;2023-02-01T11:58:33;21.77;;;5.53;;
11006;SDS011;8186;57.652;11.968;2023-02-01T12:01:21;29.37;;;5.83;;
11006;SDS011;8186;57.652;11.968;2023-02-01T12:06:50;20.17;;;4.27;;
11006;SDS011;8186;57.652;11.968;2023-02-01T12:09:26;19.83;;;4.30;;
11006;SDS011;8186;57.652;11.968;2023-02-01T12:12:04;18.07;;;4.20;;
11006;SDS011;8186;57.652;11.968;2023-02-01T12:14:57;15.50;;;3.83;;
11006;SDS011;8186;57.652;11.968;2023-02-01T12:17:38;18.40;;;3.77;;
11006;SDS011;8186;57.652;11.968;2023-02-01T12:20:21;23.03;;;4.53;;
11006;SDS011;8186;57.652;11.968;2023-02-01T12:23:01;17.90;;;4.53;;
11006;SDS011;8186;57.652;11.968;2023-02-01T12:25:39;16.30;;;3.60;;
11006;SDS011;8186;57.652;11.968;2023-02-01T12:28:24;19.53;;;4.20;;
11006;SDS011;8186;57.652;11.968;2023-02-01T12:31:06;16.17;;;3.57;;
11006;SDS011;8186;57.652;11.968;2023-02-01T12:33:55;22.37;;;3.80;;
11006;SDS011;8186;57.652;11.968;2023-02-01T12:36:31;20.80;;;4.73;;
11006;SDS011;8186;57.652;11.968;2023-02-01T12:39:06;26.37;;;5.10;;
11006;SDS011;8186;57.652;11.968;2023-02-01T12:41:48;23.47;;;4.60;;
11006;SDS011;8186;57.652;11.968;2023-02-01T12:44:31;19.03;;;3.77;;
11006;SDS011;8186;57.652;11.968;2023-02-01T12:47:03;23.50;;;4.25;;
11006;SDS011;8186;57.652;11.968;2023-02-01T12:49:36;25.20;;;4.67;;
11006;SDS011;8186;57.652;11.968;2023-02-01T12:52:10;26.03;;;4.57;;
11006;SDS011;8186;57.652;11.968;2023-02-01T12:54:43;23.80;;;4.97;;
11006;SDS011;8186;57.652;11.968;2023-02-01T12:57:14;26.93;;;6.03;;
11006;SDS011;8186;57.652;11.968;2023-02-01T12:59:44;23.57;;;5.77;;
11006;SDS011;8186;57.652;11.968;2023-02-01T13:02:15;24.40;;;5.70;;
11006;SDS011;8186;57.652;11.968;2023-02-01T13:04:49;23.03;;;4.93;;
11006;SDS011;8186;57.652;11.968;2023-02-01T13:07:24;27.37;;;6.07;;
11006;SDS011;8186;57.652;11.968;2023-02-01T13:09:55;21.40;;;5.03;;
11006;SDS011;8186;57.652;11.968;2023-02-01T13:12:29;28.07;;;6.10;;
11006;SDS011;8186;57.652;11.968;2023-02-01T13:15:02;31.03;;;5.37;;
11006;SDS011;8186;57.652;11.968;2023-02-01T13:17:32;28.40;;;5.70;;
11006;SDS011;8186;57.652;11.968;2023-02-01T13:20:02;29.53;;;7.33;;
11006;SDS011;8186;57.652;11.968;2023-02-01T13:22:32;26.60;;;5.90;;
11006;SDS011;8186;57.652;11.968;2023-02-01T13:25:10;24.17;;;5.50;;
11006;SDS011;8186;57.652;11.968;2023-02-01T13:27:39;30.17;;;6.17;;
11006;SDS011;8186;57.652;11.968;2023-02-01T13:30:10;30.07;;;7.00;;
11006;SDS011;8186;57.652;11.968;2023-02-01T13:32:44;26.73;;;6.50;;
11006;SDS011;8186;57.652;11.968;2023-02-01T13:35:41;29.97;;;6.07;;
11006;SDS011;8186;57.652;11.968;2023-02-01T13:38:24;34.43;;;5.87;;
11006;SDS011;8186;57.652;11.968;2023-02-01T13:41:02;33.97;;;6.73;;
11006;SDS011;8186;57.652;11.968;2023-02-01T13:43:38;35.50;;;6.80;;
11006;SDS011;8186;57.652;11.968;2023-02-01T13:46:08;29.67;;;5.70;;
11006;SDS011;8186;57.652;11.968;2023-02-01T13:48:39;26.67;;;5.77;;
11006;SDS011;8186;57.652;11.968;2023-02-01T13:51:08;27.97;;;5.40;;
11006;SDS011;8186;57.652;11.968;2023-02-01T13:53:35;28.87;;;5.93;;
11006;SDS011;8186;57.652;11.968;2023-02-01T13:56:06;20.60;;;6.77;;
11006;SDS011;8186;57.652;11.968;2023-02-01T13:58:37;25.50;;;5.23;;
11006;SDS011;8186;57.652;11.968;2023-02-01T14:04:04;32.03;;;6.03;;
11006;SDS011;8186;57.652;11.968;2023-02-01T14:06:44;34.40;;;5.63;;
11006;SDS011;8186;57.652;11.968;2023-02-01T14:09:16;28.00;;;5.87;;
11006;SDS011;8186;57.652;11.968;2023-02-01T14:11:45;31.70;;;6.73;;
11006;SDS011;8186;57.652;11.968;2023-02-01T14:23:25;35.20;;;6.20;;
11006;SDS011;8186;57.652;11.968;2023-02-01T14:26:02;35.77;;;5.93;;
11006;SDS011;8186;57.652;11.968;2023-02-01T14:28:35;31.00;;;7.33;;
11006;SDS011;8186;57.652;11.968;2023-02-01T14:31:13;41.23;;;7.10;;
11006;SDS011;8186;57.652;11.968;2023-02-01T14:33:43;30.70;;;5.67;;
11006;SDS011;8186;57.652;11.968;2023-02-01T14:36:12;27.50;;;4.17;;
11006;SDS011;8186;57.652;11.968;2023-02-01T14:38:40;18.43;;;3.77;;
11006;SDS011;8186;57.652;11.968;2023-02-01T14:41:31;10.93;;;3.13;;
11006;SDS011;8186;57.652;11.968;2023-02-01T14:47:07;16.60;;;3.37;;
11006;SDS011;8186;57.652;11.968;2023-02-01T14:49:55;13.90;;;2.97;;
11006;SDS011;8186;57.652;11.968;2023-02-01T14:52:28;12.20;;;3.33;;
11006;SDS011;8186;57.652;11.968;2023-02-01T14:55:03;14.73;;;2.83;;
11006;SDS011;8186;57.652;11.968;2023-02-01T14:57:33;9.83;;;2.13;;
11006;SDS011;8186;57.652;11.968;2023-02-01T15:00:07;11.13;;;2.33;;
11006;SDS011;8186;57.652;11.968;2023-02-01T15:02:41;8.93;;;2.10;;
11006;SDS011;8186;57.652;11.968;2023-02-01T15:05:20;9.57;;;1.77;;
11006;SDS011;8186;57.652;11.968;2023-02-01T15:07:50;7.53;;;2.63;;
11006;SDS011;8186;57.652;11.968;2023-02-01T15:10:18;4.53;;;1.70;;
11006;SDS011;8186;57.652;11.968;2023-02-01T15:12:45;7.33;;;1.30;;
11006;SDS011;8186;57.652;11.968;2023-02-01T15:15:14;6.97;;;1.40;;
11006;SDS011;8186;57.652;11.968;2023-02-01T15:17:50;6.10;;;1.30;;